Arlington, TN (38002)

11:12 AM CST on February 27, 2015 (GMT -0600)
Bartlett-Rockyford | Change Station
CLOSE
Current Station
Personal Weather Station
Location: Bartlett, TN
Elevation: 260 ft
Nearby Weather Stations

Elev 260 ft 35.27 °N, 89.84 °W | Updated 8 seconds ago

Partly Cloudy
Partly Cloudy
29.4 °F
Feels Like 29 °F
N
3.0
Wind Variable Wind from NE
Gusts 8.0 mph

Today
High -- | Low -- °F
--% Chance of Precip.
Yesterday
High -- | Low -- °F
Precip. -- in
6:31 AM 5:52 PM
Waxing Gibbous, 70% visible
Pressure 30.59 in
Visibility 10.0 miles
Clouds Scattered Clouds 2200 ft
Windchill 29 °F
Dew Point 19 °F
Humidity 65%
Rainfall 0.00 in
Snow Depth Not available.
UV 5 out of 12
Pollen 4.00 out of 12
Air Quality Not available.
Flu Activity Not available.
METAR KNQA 271650Z 04008KT 10SM SCT022 M04/M11 A3059

More Conditions Fewer Conditions

Pressure 30.59 in
Visibility 10.0 miles
Clouds Scattered Clouds 2200 ft
Windchill 29 °F
Dew Point 19 °F
Humidity 65%
Rainfall 0.00 in
Snow Depth Not available.
UV 5 out of 12
Pollen 4.00 out of 12
Air Quality Not available.
Flu Activity Not available.
METAR KNQA 271650Z 04008KT 10SM SCT022 M04/M11 A3059

More Conditions Fewer Conditions

10-Day Weather Forecast

Almanac

Astronomy

Feb. 27, 2015 Rise Set
Actual Time
Civil Twilight
Nautical Twilight
Astronomical Twilight
Moon
Length of Visible Light
Length of Day
Tomorrow will be .
, % of the Moon is Illuminated

Today's Extremes

State Highs State Lows

Community

WunderPhotos

Upload Photos

1,800,746 photos uploaded!

WunderBlogs® & News

Nearby

Air Quality

  Air Quality AQ Index Pollutant
Not available.

Snow Depth

Station Depth Elevation

Earthquake Activity

City Distance Mag. Time & Date
Minimum magnitude displayed is 2.5.

Coastal Water Temperatures

Place Temperature

Nearby Weather Stations